createdAt,value
2023-04-17T00:01:44.198Z,100765.91
2023-04-17T00:04:13.079Z,100760.78
2023-04-17T00:06:43.201Z,100760.66
2023-04-17T00:09:10.934Z,100760.31
2023-04-17T00:11:38.528Z,100759.38
2023-04-17T00:14:06.111Z,100754.59
2023-04-17T00:16:33.431Z,100756.19
2023-04-17T00:19:00.808Z,100761.75
2023-04-17T00:21:29.975Z,100761.47
2023-04-17T00:23:57.251Z,100757.13
2023-04-17T00:26:24.429Z,100752.31
2023-04-17T00:28:51.944Z,100746.25
2023-04-17T00:31:19.314Z,100749.44
2023-04-17T00:33:46.705Z,100746.53
2023-04-17T00:36:15.406Z,100754.75
2023-04-17T00:38:42.692Z,100740.63
2023-04-17T00:41:09.985Z,100746.09
2023-04-17T00:43:37.296Z,100746.09
2023-04-17T00:46:04.858Z,100745.47
2023-04-17T00:48:34.161Z,100745.28
2023-04-17T00:51:03.256Z,100740.00
2023-04-17T00:53:31.574Z,100746.41
2023-04-17T00:56:00.689Z,100741.59
2023-04-17T00:58:27.836Z,100742.09
2023-04-17T01:00:55.182Z,100742.25
2023-04-17T01:03:23.147Z,100742.25
2023-04-17T01:05:51.669Z,100739.38
2023-04-17T01:08:19.442Z,100739.06
2023-04-17T01:10:46.793Z,100734.09
2023-04-17T01:13:13.905Z,100735.72
2023-04-17T01:15:42.998Z,100728.19
2023-04-17T01:18:10.244Z,100725.47
2023-04-17T01:20:37.728Z,100726.91
2023-04-17T01:23:04.865Z,100729.78
2023-04-17T01:25:31.929Z,100723.06
2023-04-17T01:27:59.337Z,100731.06
2023-04-17T01:30:28.672Z,100734.13
2023-04-17T01:33:01.645Z,100729.78
2023-04-17T01:35:29.089Z,100737.47
2023-04-17T01:37:56.382Z,100738.91
2023-04-17T01:40:23.408Z,100737.63
2023-04-17T01:42:50.472Z,100740.81
2023-04-17T01:45:17.612Z,100737.28
2023-04-17T01:47:44.752Z,100733.44
2023-04-17T01:50:12.234Z,100741.31
2023-04-17T01:52:39.954Z,100735.06
2023-04-17T01:55:07.430Z,100733.31
2023-04-17T01:57:34.546Z,100743.84
2023-04-17T02:00:01.730Z,100735.00
2023-04-17T02:02:39.701Z,100734.22
2023-04-17T02:05:07.299Z,100737.25
2023-04-17T02:07:34.442Z,100736.13
2023-04-17T02:10:01.588Z,100725.25
2023-04-17T02:12:28.647Z,100735.91
2023-04-17T02:15:00.863Z,100725.47
2023-04-17T02:17:28.242Z,100726.47
2023-04-17T02:19:55.368Z,100728.16
2023-04-17T02:22:22.442Z,100724.72
2023-04-17T02:24:49.578Z,100728.91
2023-04-17T02:27:17.275Z,100727.75
2023-04-17T02:29:44.297Z,100733.63
2023-04-17T02:32:11.417Z,100730.09
2023-04-17T02:34:38.558Z,100720.94
2023-04-17T02:37:06.090Z,100726.72
2023-04-17T02:39:35.221Z,100724.84
2023-04-17T02:42:03.142Z,100720.69
2023-04-17T02:44:30.542Z,100719.44
2023-04-17T02:46:58.034Z,100714.78
2023-04-17T02:49:26.672Z,100718.59
2023-04-17T02:51:53.890Z,100728.38
2023-04-17T02:54:21.113Z,100726.31
2023-04-17T02:56:48.685Z,100723.44
2023-04-17T02:59:15.891Z,100722.31
2023-04-17T03:01:43.018Z,100721.06
2023-04-17T03:04:10.443Z,100730.00
2023-04-17T03:06:37.639Z,100724.06
2023-04-17T03:09:04.990Z,100729.03
2023-04-17T03:11:32.208Z,100725.50
2023-04-17T03:13:59.286Z,100725.47
2023-04-17T03:16:26.392Z,100723.91
2023-04-17T03:18:55.996Z,100725.38
2023-04-17T03:21:23.105Z,100727.50
2023-04-17T03:23:50.872Z,100729.16
2023-04-17T03:26:20.610Z,100723.88
2023-04-17T03:28:48.722Z,100732.66
2023-04-17T03:31:16.012Z,100726.25
2023-04-17T03:33:43.111Z,100726.47
2023-04-17T03:36:10.451Z,100730.47
2023-04-17T03:38:38.376Z,100729.50
2023-04-17T03:41:07.860Z,100720.56
2023-04-17T03:43:34.997Z,100729.00
2023-04-17T03:46:02.270Z,100716.06
2023-04-17T03:48:30.604Z,100713.53
2023-04-17T03:50:57.716Z,100718.28
2023-04-17T03:53:24.819Z,100721.78
2023-04-17T03:55:53.436Z,100724.69
2023-04-17T03:58:27.711Z,100721.03
2023-04-17T04:00:55.662Z,100728.66
2023-04-17T04:03:26.467Z,100719.91
2023-04-17T04:05:54.100Z,100730.13
2023-04-17T04:08:21.373Z,100724.06
2023-04-17T04:10:51.859Z,100729.50
2023-04-17T04:13:25.009Z,100725.03
2023-04-17T04:15:56.624Z,100727.84
2023-04-17T04:18:26.234Z,100732.06
2023-04-17T04:20:53.620Z,100721.06
2023-04-17T04:23:46.655Z,100731.94
2023-04-17T04:26:18.447Z,100733.69
2023-04-17T04:28:51.244Z,100722.47
2023-04-17T04:31:29.794Z,100727.75
2023-04-17T04:33:59.197Z,100727.16
2023-04-17T04:36:30.010Z,100728.75
2023-04-17T04:39:10.444Z,100737.06
2023-04-17T04:41:38.329Z,100728.94
2023-04-17T04:44:08.877Z,100736.25
2023-04-17T04:46:38.810Z,100727.63
2023-04-17T04:49:06.865Z,100714.03
2023-04-17T04:51:34.485Z,100714.19
2023-04-17T04:54:04.605Z,100724.03
2023-04-17T04:56:33.245Z,100733.78
2023-04-17T04:59:00.603Z,100740.19
2023-04-17T05:01:30.286Z,100741.63
2023-04-17T05:03:57.749Z,100751.25
2023-04-17T05:06:28.591Z,100744.50
2023-04-17T05:09:00.872Z,100753.63
2023-04-17T05:11:28.025Z,100746.59
2023-04-17T05:13:55.757Z,100753.16
2023-04-17T05:16:26.685Z,100754.41
2023-04-17T05:18:53.953Z,100756.50
2023-04-17T05:21:32.511Z,100749.78
2023-04-17T05:24:01.320Z,100762.91
2023-04-17T05:26:28.499Z,100757.81
2023-04-17T05:28:55.772Z,100758.28
2023-04-17T05:31:27.188Z,100767.88
2023-04-17T05:33:55.903Z,100757.13
2023-04-17T05:36:22.997Z,100753.91
2023-04-17T05:38:52.031Z,100755.53
2023-04-17T05:41:19.180Z,100759.38
2023-04-17T05:43:46.564Z,100755.50
2023-04-17T05:46:13.690Z,100756.47
2023-04-17T05:48:43.395Z,100758.84
2023-04-17T05:51:10.518Z,100764.75
2023-04-17T05:53:38.294Z,100763.97
2023-04-17T05:56:05.629Z,100764.47
2023-04-17T05:58:36.116Z,100768.78
2023-04-17T06:01:06.336Z,100764.94
2023-04-17T06:03:34.585Z,100766.66
2023-04-17T06:06:10.222Z,100770.63
2023-04-17T06:08:37.324Z,100785.41
2023-04-17T06:11:05.557Z,100782.34
2023-04-17T06:13:33.570Z,100789.06
2023-04-17T06:16:00.927Z,100791.28
2023-04-17T06:18:28.119Z,100791.28
2023-04-17T06:20:55.350Z,100792.94
2023-04-17T06:23:22.419Z,100793.41
2023-04-17T06:25:49.700Z,100800.16
2023-04-17T06:28:16.849Z,100808.00
2023-04-17T06:30:44.153Z,100803.00
2023-04-17T06:33:11.271Z,100801.84
2023-04-17T06:35:38.755Z,100801.72
2023-04-17T06:38:15.556Z,100804.41
2023-04-17T06:40:43.580Z,100802.00
2023-04-17T06:43:11.678Z,100806.50
2023-04-17T06:45:42.365Z,100802.09
2023-04-17T06:48:09.525Z,100801.13
2023-04-17T06:50:36.646Z,100808.34
2023-04-17T06:53:03.692Z,100807.78
2023-04-17T06:55:30.790Z,100810.72
2023-04-17T06:57:57.798Z,100809.88
2023-04-17T07:00:24.978Z,100811.63
2023-04-17T07:02:52.190Z,100816.94
2023-04-17T07:05:19.532Z,100819.41
2023-04-17T07:07:47.862Z,100820.13
2023-04-17T07:10:16.059Z,100822.66
2023-04-17T07:12:43.286Z,100815.09
2023-04-17T07:15:10.564Z,100819.81
2023-04-17T07:17:37.722Z,100820.84
2023-04-17T07:20:05.744Z,100814.53
2023-04-17T07:22:34.380Z,100815.59
2023-04-17T07:25:01.530Z,100819.78
2023-04-17T07:27:29.088Z,100822.84
2023-04-17T07:29:56.433Z,100831.75
2023-04-17T07:32:26.557Z,100823.56
2023-04-17T07:34:53.710Z,100829.47
2023-04-17T07:37:21.470Z,100825.75
2023-04-17T07:39:49.492Z,100834.00
2023-04-17T07:42:16.747Z,100829.91
2023-04-17T07:44:43.831Z,100827.16
2023-04-17T07:47:11.106Z,100826.06
2023-04-17T07:49:40.404Z,100834.84
2023-04-17T07:52:07.676Z,100830.75
2023-04-17T07:54:34.849Z,100839.06
2023-04-17T07:57:03.593Z,100841.31
2023-04-17T07:59:30.838Z,100841.69
2023-04-17T08:01:58.206Z,100847.22
2023-04-17T08:04:26.185Z,100847.03
2023-04-17T08:06:53.523Z,100845.50
2023-04-17T08:09:21.254Z,100851.00
2023-04-17T08:11:56.942Z,100849.28
2023-04-17T08:14:25.433Z,100845.88
2023-04-17T08:16:52.818Z,100851.44
2023-04-17T08:19:20.093Z,100848.22
2023-04-17T08:21:47.548Z,100844.91
2023-04-17T08:24:15.469Z,100860.00
2023-04-17T08:26:43.744Z,100856.53
2023-04-17T08:29:11.136Z,100852.47
2023-04-17T08:31:39.918Z,100856.50
2023-04-17T08:34:14.568Z,100850.03
2023-04-17T08:36:43.152Z,100858.25
2023-04-17T08:39:12.395Z,100863.44
2023-04-17T08:41:42.985Z,100859.38
2023-04-17T08:44:10.216Z,100868.47
2023-04-17T08:46:38.185Z,100863.34
2023-04-17T08:49:05.460Z,100864.91
2023-04-17T08:51:32.749Z,100869.56
2023-04-17T08:53:59.925Z,100865.28
2023-04-17T08:56:28.720Z,100864.38
2023-04-17T08:58:55.875Z,100861.88
2023-04-17T09:01:23.034Z,100864.06
2023-04-17T09:03:52.204Z,100857.78
2023-04-17T09:06:19.498Z,100861.16
2023-04-17T09:08:59.923Z,100856.25
2023-04-17T09:11:27.444Z,100857.41
2023-04-17T09:13:54.597Z,100850.22
2023-04-17T09:16:22.127Z,100850.84
2023-04-17T09:18:49.617Z,100848.59
2023-04-17T09:21:18.765Z,100851.78
2023-04-17T09:23:48.546Z,100845.75
2023-04-17T09:26:16.879Z,100846.53
2023-04-17T09:29:00.424Z,100851.34
2023-04-17T09:31:30.253Z,100853.91
2023-04-17T09:34:01.521Z,100847.84
2023-04-17T09:36:30.576Z,100851.91
2023-04-17T09:39:00.201Z,100853.72
2023-04-17T09:41:28.821Z,100854.16
2023-04-17T09:44:05.372Z,100854.88
2023-04-17T09:46:40.702Z,100855.81
2023-04-17T09:49:07.829Z,100857.41
2023-04-17T09:51:35.198Z,100849.78
2023-04-17T09:54:06.928Z,100846.03
2023-04-17T09:56:35.501Z,100844.00
2023-04-17T09:59:03.977Z,100835.19
2023-04-17T10:01:32.613Z,100833.06
2023-04-17T10:04:00.414Z,100828.31
2023-04-17T10:06:28.266Z,100835.72
2023-04-17T10:08:55.352Z,100835.22
2023-04-17T10:11:24.319Z,100827.81
2023-04-17T10:14:12.223Z,100827.44
2023-04-17T10:16:40.547Z,100819.56
2023-04-17T10:19:27.529Z,100821.53
2023-04-17T10:22:13.449Z,100823.47
2023-04-17T10:24:40.899Z,100823.91
2023-04-17T10:27:26.327Z,100819.84
2023-04-17T10:29:54.172Z,100810.44
2023-04-17T10:32:24.067Z,100801.97
2023-04-17T10:34:52.020Z,100814.47
2023-04-17T10:37:19.484Z,100813.66
2023-04-17T10:39:53.586Z,100803.09
2023-04-17T10:42:21.417Z,100805.50
2023-04-17T10:44:48.955Z,100805.22
2023-04-17T10:47:19.448Z,100799.75
2023-04-17T10:49:58.349Z,100812.38
2023-04-17T10:52:31.771Z,100805.59
2023-04-17T10:55:04.669Z,100803.44
2023-04-17T10:57:50.183Z,100800.03
2023-04-17T11:00:18.311Z,100796.09
2023-04-17T11:02:46.174Z,100798.72
2023-04-17T11:05:13.299Z,100797.50
2023-04-17T11:07:41.568Z,100789.41
2023-04-17T11:10:09.532Z,100788.28
2023-04-17T11:12:36.791Z,100779.16
2023-04-17T11:15:04.625Z,100773.59
2023-04-17T11:17:31.932Z,100774.41
2023-04-17T11:20:00.012Z,100766.03
2023-04-17T11:22:33.810Z,100767.56
2023-04-17T11:25:00.922Z,100771.25
2023-04-17T11:27:28.014Z,100764.44
2023-04-17T11:29:55.069Z,100772.44
2023-04-17T11:32:22.133Z,100772.44
2023-04-17T11:34:49.278Z,100770.06
2023-04-17T11:37:16.400Z,100770.06
2023-04-17T11:39:43.619Z,100772.06
2023-04-17T11:42:10.830Z,100766.13
2023-04-17T11:44:42.734Z,100770.38
2023-04-17T11:47:10.875Z,100776.31
2023-04-17T11:49:39.141Z,100785.25
2023-04-17T11:52:06.416Z,100782.63
2023-04-17T11:54:37.255Z,100772.06
2023-04-17T11:57:11.545Z,100771.88
2023-04-17T11:59:39.607Z,100783.59
2023-04-17T12:02:07.454Z,100780.03
2023-04-17T12:04:36.588Z,100781.91
2023-04-17T12:07:04.686Z,100783.88
2023-04-17T12:09:32.351Z,100781.97
2023-04-17T12:12:06.553Z,100778.53
2023-04-17T12:14:33.724Z,100781.13
2023-04-17T12:17:01.203Z,100778.75
2023-04-17T12:19:31.576Z,100779.88
2023-04-17T12:21:59.482Z,100778.94
2023-04-17T12:24:26.782Z,100778.47
2023-04-17T12:26:54.515Z,100768.16
2023-04-17T12:29:36.221Z,100768.63
2023-04-17T12:32:10.375Z,100770.34
2023-04-17T12:34:37.737Z,100769.78
2023-04-17T12:37:04.850Z,100767.38
2023-04-17T12:39:32.723Z,100761.16
2023-04-17T12:41:59.760Z,100772.84
2023-04-17T12:44:26.783Z,100760.16
2023-04-17T12:46:53.829Z,100764.34
2023-04-17T12:49:21.044Z,100770.44
2023-04-17T12:51:48.181Z,100757.34
2023-04-17T12:54:15.392Z,100763.91
2023-04-17T12:56:42.495Z,100764.09
2023-04-17T12:59:10.374Z,100753.06
2023-04-17T13:01:37.474Z,100753.28
2023-04-17T13:04:04.952Z,100755.25
2023-04-17T13:06:32.477Z,100751.31
2023-04-17T13:08:59.586Z,100748.22
2023-04-17T13:11:26.758Z,100744.28
2023-04-17T13:13:53.802Z,100742.78
2023-04-17T13:16:23.328Z,100740.63
2023-04-17T13:18:50.425Z,100738.66
2023-04-17T13:21:17.533Z,100737.47
2023-04-17T13:23:44.991Z,100734.03
2023-04-17T13:26:14.324Z,100737.25
2023-04-17T13:28:41.439Z,100735.34
2023-04-17T13:31:08.572Z,100732.16
2023-04-17T13:33:35.809Z,100719.47
2023-04-17T13:36:02.887Z,100724.53
2023-04-17T13:38:30.492Z,100720.69
2023-04-17T13:40:57.544Z,100719.91
2023-04-17T13:43:24.601Z,100715.19
2023-04-17T13:45:54.137Z,100708.78
2023-04-17T13:48:22.508Z,100707.59
2023-04-17T13:50:49.569Z,100706.44
2023-04-17T13:53:16.930Z,100709.16
2023-04-17T13:55:44.051Z,100709.84
2023-04-17T13:58:11.202Z,100712.53
2023-04-17T14:00:38.293Z,100720.72
2023-04-17T14:03:05.596Z,100715.28
2023-04-17T14:05:33.010Z,100710.03
2023-04-17T14:08:00.221Z,100704.91
2023-04-17T14:10:27.365Z,100706.16
2023-04-17T14:12:54.472Z,100715.34
2023-04-17T14:15:21.580Z,100703.41
2023-04-17T14:17:48.868Z,100703.84
2023-04-17T14:20:17.897Z,100697.97
2023-04-17T14:22:45.568Z,100702.88
2023-04-17T14:25:13.281Z,100698.84
2023-04-17T14:27:40.584Z,100697.97
2023-04-17T14:30:08.291Z,100697.97
2023-04-17T14:32:35.429Z,100685.69
2023-04-17T14:35:02.500Z,100690.56
2023-04-17T14:37:29.655Z,100690.22
2023-04-17T14:39:56.823Z,100687.50
2023-04-17T14:42:23.940Z,100679.06
2023-04-17T14:44:51.087Z,100673.59
2023-04-17T14:47:18.722Z,100669.03
2023-04-17T14:49:45.853Z,100667.88
2023-04-17T14:52:12.987Z,100663.00
2023-04-17T14:54:40.209Z,100666.09
2023-04-17T14:57:07.528Z,100674.63
2023-04-17T14:59:34.597Z,100680.03
2023-04-17T15:02:01.824Z,100677.38
2023-04-17T15:04:29.171Z,100672.66
2023-04-17T15:06:56.331Z,100682.06
2023-04-17T15:09:23.378Z,100676.72
2023-04-17T15:11:50.549Z,100681.28
2023-04-17T15:14:17.596Z,100683.28
2023-04-17T15:16:44.805Z,100694.78
2023-04-17T15:19:12.186Z,100692.84
2023-04-17T15:21:39.423Z,100689.69
2023-04-17T15:24:06.693Z,100693.19
2023-04-17T15:26:33.781Z,100696.63
2023-04-17T15:29:01.062Z,100694.28
2023-04-17T15:31:28.154Z,100699.81
2023-04-17T15:33:55.235Z,100700.88
2023-04-17T15:36:22.268Z,100700.13
2023-04-17T15:38:51.715Z,100702.09
2023-04-17T15:41:19.500Z,100705.16
2023-04-17T15:43:46.615Z,100695.06
2023-04-17T15:46:13.821Z,100698.44
2023-04-17T15:48:40.975Z,100699.31
2023-04-17T15:51:09.480Z,100694.28
2023-04-17T15:53:36.524Z,100695.22
2023-04-17T15:56:03.663Z,100689.28
2023-04-17T15:58:30.803Z,100695.84
2023-04-17T16:00:57.968Z,100689.81
2023-04-17T16:03:25.250Z,100694.28
2023-04-17T16:05:54.054Z,100687.06
2023-04-17T16:08:21.272Z,100687.81
2023-04-17T16:10:48.318Z,100687.03
2023-04-17T16:13:16.170Z,100687.91
2023-04-17T16:15:43.336Z,100697.28
2023-04-17T16:18:10.470Z,100693.94
2023-04-17T16:20:39.276Z,100696.00
2023-04-17T16:23:06.526Z,100692.47
2023-04-17T16:25:33.632Z,100696.81
2023-04-17T16:28:00.683Z,100693.81
2023-04-17T16:30:27.854Z,100700.00
2023-04-17T16:32:55.008Z,100693.81
2023-04-17T16:35:22.205Z,100699.50
2023-04-17T16:37:49.332Z,100706.91
2023-04-17T16:40:17.893Z,100705.88
2023-04-17T16:42:45.049Z,100705.31
2023-04-17T16:45:12.169Z,100701.53
2023-04-17T16:47:39.444Z,100704.69
2023-04-17T16:50:07.539Z,100706.41
2023-04-17T16:52:35.491Z,100709.59
2023-04-17T16:55:02.574Z,100707.50
2023-04-17T16:57:31.104Z,100707.41
2023-04-17T16:59:58.330Z,100700.66
2023-04-17T17:02:25.685Z,100707.03
2023-04-17T17:04:52.856Z,100703.06
2023-04-17T17:07:19.951Z,100705.28
2023-04-17T17:09:47.063Z,100699.44
2023-04-17T17:12:14.088Z,100702.84
2023-04-17T17:14:41.250Z,100707.91
2023-04-17T17:17:08.344Z,100702.00
2023-04-17T17:19:35.579Z,100705.41
2023-04-17T17:22:02.675Z,100712.84
2023-04-17T17:24:30.964Z,100709.59
2023-04-17T17:26:58.082Z,100711.75
2023-04-17T17:29:25.260Z,100709.22
2023-04-17T17:31:52.391Z,100707.56
2023-04-17T17:34:25.979Z,100709.97
2023-04-17T17:36:53.956Z,100714.06
2023-04-17T17:39:22.275Z,100710.44
2023-04-17T17:41:49.745Z,100711.97
2023-04-17T17:44:17.059Z,100717.53
2023-04-17T17:46:44.164Z,100715.50
2023-04-17T17:49:11.222Z,100719.47
2023-04-17T17:51:38.360Z,100719.84
2023-04-17T17:54:05.576Z,100720.13
2023-04-17T17:56:32.692Z,100716.59
2023-04-17T17:58:59.766Z,100719.19
2023-04-17T18:01:26.888Z,100712.84
2023-04-17T18:03:54.392Z,100714.84
2023-04-17T18:06:21.752Z,100717.88
2023-04-17T18:08:49.112Z,100724.53
2023-04-17T18:11:16.280Z,100731.66
2023-04-17T18:13:43.329Z,100723.53
2023-04-17T18:16:10.588Z,100728.31
2023-04-17T18:18:38.786Z,100725.44
2023-04-17T18:21:09.327Z,100733.28
2023-04-17T18:23:36.591Z,100726.91
2023-04-17T18:26:03.989Z,100733.19
2023-04-17T18:28:31.137Z,100733.44
2023-04-17T18:30:58.296Z,100729.91
2023-04-17T18:33:25.427Z,100725.69
2023-04-17T18:35:52.580Z,100736.59
2023-04-17T18:38:19.684Z,100738.69
2023-04-17T18:40:46.729Z,100734.97
2023-04-17T18:43:13.864Z,100743.78
2023-04-17T18:45:41.006Z,100741.06
2023-04-17T18:48:08.860Z,100746.38
2023-04-17T18:50:38.391Z,100743.38
2023-04-17T18:53:05.653Z,100745.22
2023-04-17T18:55:33.145Z,100747.34
2023-04-17T18:58:00.279Z,100743.25
2023-04-17T19:00:27.531Z,100746.47
2023-04-17T19:02:56.477Z,100740.09
2023-04-17T19:05:26.110Z,100743.97
2023-04-17T19:07:53.853Z,100743.53
2023-04-17T19:10:21.927Z,100741.94
2023-04-17T19:12:50.070Z,100742.84
2023-04-17T19:15:17.677Z,100739.72
2023-04-17T19:17:46.648Z,100734.94
2023-04-17T19:20:16.596Z,100743.72
2023-04-17T19:22:45.003Z,100749.13
2023-04-17T19:25:12.347Z,100739.56
2023-04-17T19:27:40.414Z,100745.22
2023-04-17T19:30:08.226Z,100745.38
2023-04-17T19:32:37.447Z,100746.69
2023-04-17T19:35:05.222Z,100740.78
2023-04-17T19:37:35.234Z,100751.84
2023-04-17T19:40:08.539Z,100745.75
2023-04-17T19:42:42.707Z,100747.59
2023-04-17T19:45:10.795Z,100744.75
2023-04-17T19:47:40.993Z,100744.22
2023-04-17T19:50:11.194Z,100747.19
2023-04-17T19:52:38.781Z,100744.72
2023-04-17T19:55:07.990Z,100742.09
2023-04-17T19:57:35.240Z,100746.22
2023-04-17T20:00:03.356Z,100743.28
2023-04-17T20:02:39.887Z,100738.31
2023-04-17T20:05:07.480Z,100741.78
2023-04-17T20:07:35.478Z,100738.72
2023-04-17T20:10:03.161Z,100735.16
2023-04-17T20:12:32.023Z,100738.63
2023-04-17T20:14:59.435Z,100735.75
2023-04-17T20:17:27.557Z,100738.50
2023-04-17T20:19:55.055Z,100738.25
2023-04-17T20:22:22.553Z,100735.88
2023-04-17T20:24:50.824Z,100735.56
2023-04-17T20:27:18.070Z,100734.88
2023-04-17T20:29:45.645Z,100727.81
2023-04-17T20:32:13.061Z,100732.81
2023-04-17T20:34:40.630Z,100734.66
2023-04-17T20:37:07.876Z,100740.34
2023-04-17T20:39:35.007Z,100738.09
2023-04-17T20:42:03.986Z,100732.38
2023-04-17T20:44:31.943Z,100733.53
2023-04-17T20:46:59.241Z,100734.47
2023-04-17T20:49:26.620Z,100732.50
2023-04-17T20:51:53.815Z,100725.81
2023-04-17T20:54:20.927Z,100732.88
2023-04-17T20:56:48.037Z,100735.16
2023-04-17T20:59:15.133Z,100741.91
2023-04-17T21:01:42.180Z,100736.19
2023-04-17T21:04:10.854Z,100739.28
2023-04-17T21:06:38.916Z,100738.63
2023-04-17T21:09:06.253Z,100738.25
2023-04-17T21:11:33.409Z,100739.53
2023-04-17T21:14:01.138Z,100743.06
2023-04-17T21:16:29.836Z,100738.03
2023-04-17T21:18:57.166Z,100741.84
2023-04-17T21:21:24.256Z,100749.34
2023-04-17T21:23:51.530Z,100744.09
2023-04-17T21:26:18.805Z,100743.84
2023-04-17T21:28:46.097Z,100741.91
2023-04-17T21:31:13.778Z,100741.25
2023-04-17T21:33:40.898Z,100742.03
2023-04-17T21:36:08.315Z,100735.78
2023-04-17T21:38:35.579Z,100734.84
2023-04-17T21:41:02.818Z,100737.25
2023-04-17T21:43:30.162Z,100741.25
2023-04-17T21:45:57.543Z,100729.94
2023-04-17T21:48:24.921Z,100736.41
2023-04-17T21:50:52.784Z,100740.63
2023-04-17T21:53:19.928Z,100740.97
2023-04-17T21:55:47.090Z,100744.28
2023-04-17T21:58:32.459Z,100742.09
2023-04-17T22:01:01.187Z,100741.50
2023-04-17T22:03:30.680Z,100736.03
2023-04-17T22:05:58.093Z,100737.63
2023-04-17T22:08:25.467Z,100749.38
2023-04-17T22:10:52.729Z,100745.13
2023-04-17T22:13:21.285Z,100747.16
2023-04-17T22:15:49.325Z,100742.00
2023-04-17T22:18:16.586Z,100748.09
2023-04-17T22:20:44.028Z,100743.41
2023-04-17T22:23:11.285Z,100743.75
2023-04-17T22:25:38.492Z,100750.00
2023-04-17T22:28:05.769Z,100744.34
2023-04-17T22:30:33.039Z,100750.00
2023-04-17T22:33:00.471Z,100746.00
2023-04-17T22:35:27.932Z,100747.00
2023-04-17T22:37:55.219Z,100750.66
2023-04-17T22:40:22.549Z,100750.25
2023-04-17T22:42:50.649Z,100752.28
2023-04-17T22:45:17.952Z,100752.72
2023-04-17T22:47:45.313Z,100746.34
2023-04-17T22:50:14.218Z,100749.41
2023-04-17T22:52:41.533Z,100749.25
2023-04-17T22:55:08.835Z,100754.88
2023-04-17T22:57:36.214Z,100748.72
2023-04-17T23:00:03.907Z,100750.53
2023-04-17T23:02:31.437Z,100757.53
2023-04-17T23:05:00.012Z,100756.28
2023-04-17T23:07:27.430Z,100758.66
2023-04-17T23:09:54.628Z,100754.69
2023-04-17T23:12:21.821Z,100758.94
2023-04-17T23:14:49.165Z,100772.72
2023-04-17T23:17:16.396Z,100767.94
2023-04-17T23:19:43.624Z,100761.00
2023-04-17T23:22:10.845Z,100756.88
2023-04-17T23:24:38.110Z,100759.06
2023-04-17T23:27:05.354Z,100761.00
2023-04-17T23:29:32.552Z,100762.88
2023-04-17T23:31:59.935Z,100754.88
2023-04-17T23:34:27.963Z,100761.69
2023-04-17T23:36:55.177Z,100759.13
2023-04-17T23:39:22.460Z,100763.06
2023-04-17T23:41:49.920Z,100763.09
2023-04-17T23:44:17.163Z,100769.22
2023-04-17T23:46:44.496Z,100752.84
2023-04-17T23:49:11.785Z,100755.47
2023-04-17T23:51:39.444Z,100757.31
2023-04-17T23:54:08.009Z,100751.09
2023-04-17T23:56:35.814Z,100758.03
2023-04-17T23:59:03.086Z,100749.66
